Meteo Giornale » Osservazioni meteo Italia » Treviso-S Angelo

ore: 16:50 - Osservazioni Meteo Treviso-S Angelo
Lat. 45° 39' N Lon. 12° 11' E Alt. 18 metri s.l.m.

nuvoloso Europe/Rome

23 °C

Nuvoloso

Temp. 24 Ore

22 °C

31 °C

Nord

13 Km/h

Dew point 16 °C

Umidità 64 %

Visibilità  10 Km

Il sole sorge alle ore 05:53

Il sole tramonta alle ore 20:41

Data e Ora Cielo e Fenomeni T °C DP °C Um. % Pres. hPa Vis. km Vento km/h
Oggi h: 16:50 nuvoloso Nuvoloso 23 16 64 1005 10 N 13
Oggi h: 15:50 coperto_pioggia Pioggia Debole 23 16 64 1005 10 N/NO 11.1
Oggi h: 15:20 nuvoloso Nuvoloso 24 16 60 1005 10 N/NE 20.3
Oggi h: 14:50 nuvoloso Nuvoloso 26 17 57 1004 10 NO 7.4
Oggi h: 14:20 nuvoloso Nuvoloso 26 16 54 1004 10 O/NO 7.4
Oggi h: 13:50 coperto_pioggia Pioggia Debole 25 15 53 1003 10 N/NO 16.7
Oggi h: 13:20 poco_nuvoloso Poco Nuvoloso 29 18 51 1003 10 SO 16.7
Oggi h: 12:50 sereno Sereno 29 17 48 1003 10 SO 14.8
Oggi h: 12:20 sereno Sereno 28 21 65 1003 10 S/SO 16.7
Oggi h: 11:50 nuvoloso_temporali Temporale nelle Vicinanze 27 22 74 1003 10 S/SO 11.1
Oggi h: 11:20 nuvoloso_temporali Temporale nelle Vicinanze 27 22 74 1003 10 S/SE 7.4
Oggi h: 10:50 poco_nuvoloso Poco Nuvoloso 28 21 65 1004 10 N 5.5
Oggi h: 10:20 sereno Sereno 27 21 69 1004 10 SE 7.4
Oggi h: 09:50 sereno Sereno 27 20 65 1004 10 N 3.7
Oggi h: 09:20 sereno Sereno 26 19 65 1003 10 N 3.7
Oggi h: 08:50 sereno Sereno 25 19 69 1003 10 N 1.8
Oggi h: 08:20 sereno Sereno 24 19 73 1004 10 N 5.5
Oggi h: 07:50 sereno Sereno 23 19 78 1003 10 N 3.7
Oggi h: 07:20 sereno Sereno 22 20 88 1003 10 NE 7.4
Oggi h: 06:50 sereno Sereno 22 20 88 1003 10 N 3.7
Oggi h: 06:20 nuvoloso_temporali Temporale nelle Vicinanze 23 20 83 1004 10 N/NE 11.1
Oggi h: 05:50 coperto_temporali Temporale 23 20 83 1003 10 N 3.7
Oggi h: 05:20 nuvoloso_temporali Temporale nelle Vicinanze 23 20 83 1003 10 N 1.8
Oggi h: 04:50 nuvoloso Nuvoloso 23 20 83 1004 10 N 1.8
Oggi h: 04:20 sereno Sereno 23 20 83 1004 10 N 1.8
Oggi h: 03:50 poco_nuvoloso Poco Nuvoloso 24 20 78 1004 10 N 5.5
Oggi h: 03:20 sereno Sereno 24 20 78 1004 10 N 3.7
Oggi h: 02:50 sereno Sereno 24 20 78 1004 10 N 3.7
Oggi h: 02:20 poco_nuvoloso Poco Nuvoloso 24 20 78 1004 10 N 5.5
Oggi h: 01:50 molto_nuvoloso Molto Nuvoloso 25 20 73 1005 10 N 5.5
Oggi h: 01:20 nuvoloso Nuvoloso 25 20 73 1005 10 E/NE 11.1
Oggi h: 00:50 sereno Sereno 25 21 78 1005 10 NE 7.4
Oggi h: 00:20 sereno Sereno 25 21 78 1005 10 N 11.1
Ieri h: 23:50 sereno Sereno 25 21 78 1005 10 N/NE 11.1
Ieri h: 23:20 poco_nuvoloso Poco Nuvoloso 26 22 78 1006 10 N 5.5
Ieri h: 22:20 poco_nuvoloso Poco Nuvoloso 27 23 78 1006 10 N/NE 7.4
Ieri h: 21:50 nuvoloso_temporali Temporale nelle Vicinanze 27 22 74 1007 10 N 3.7
Ieri h: 21:20 nuvoloso_temporali Temporale nelle Vicinanze 27 21 69 1007 10 N 3.7
Ieri h: 20:50 sereno Sereno 27 21 69 1006 10 E 7.4
Ieri h: 20:20 sereno Sereno 28 21 65 1007 10 N 3.7
Ieri h: 19:50 sereno Sereno 29 21 62 1007 10 N 5.5
Ieri h: 19:20 sereno Sereno 29 21 62 1007 10 N 5.5
Ieri h: 18:50 sereno Sereno 30 20 55 1006 10 N 7.4
Ieri h: 17:50 sereno Sereno 31 21 55 1007 10 E 7.4